createdAt,value
2023-05-09T00:01:45.392Z,29.77
2023-05-09T00:04:12.465Z,31.60
2023-05-09T00:06:39.348Z,31.48
2023-05-09T00:09:06.232Z,31.38
2023-05-09T00:11:33.020Z,31.25
2023-05-09T00:13:59.844Z,28.73
2023-05-09T00:16:26.731Z,31.42
2023-05-09T00:18:53.538Z,32.33
2023-05-09T00:21:20.357Z,31.45
2023-05-09T00:23:47.735Z,30.67
2023-05-09T00:26:14.489Z,31.45
2023-05-09T00:28:43.355Z,29.95
2023-05-09T00:31:10.142Z,29.25
2023-05-09T00:33:36.966Z,28.77
2023-05-09T00:36:04.205Z,30.88
2023-05-09T00:38:31.001Z,29.40
2023-05-09T00:40:57.834Z,29.63
2023-05-09T00:43:24.644Z,29.70
2023-05-09T00:45:51.848Z,28.60
2023-05-09T00:48:18.899Z,33.45
2023-05-09T00:50:47.085Z,32.83
2023-05-09T00:53:14.386Z,31.75
2023-05-09T00:55:41.191Z,31.30
2023-05-09T00:58:08.446Z,32.22
2023-05-09T01:00:35.241Z,31.45
2023-05-09T01:03:02.415Z,32.70
2023-05-09T01:05:38.568Z,33.70
2023-05-09T01:08:33.024Z,32.00
2023-05-09T01:11:29.880Z,32.05
2023-05-09T01:14:38.781Z,33.38
2023-05-09T01:17:12.991Z,32.25
2023-05-09T01:20:08.552Z,31.25
2023-05-09T01:22:37.897Z,30.77
2023-05-09T01:25:41.273Z,31.13
2023-05-09T01:28:11.850Z,32.35
2023-05-09T01:30:41.724Z,32.35
2023-05-09T01:33:11.198Z,31.58
2023-05-09T01:35:39.801Z,33.45
2023-05-09T01:38:16.358Z,33.45
2023-05-09T01:40:45.750Z,32.15
2023-05-09T01:43:16.442Z,35.10
2023-05-09T01:45:44.606Z,33.50
2023-05-09T01:48:12.869Z,34.25
2023-05-09T01:50:41.025Z,30.77
2023-05-09T01:53:10.047Z,33.65
2023-05-09T01:55:39.566Z,34.42
2023-05-09T01:58:07.004Z,34.38
2023-05-09T02:00:35.170Z,34.42
2023-05-09T02:03:03.959Z,34.22
2023-05-09T02:05:31.787Z,34.50
2023-05-09T02:07:59.726Z,34.67
2023-05-09T02:10:30.620Z,35.83
2023-05-09T02:12:58.027Z,34.35
2023-05-09T02:15:25.914Z,33.58
2023-05-09T02:17:53.147Z,33.10
2023-05-09T02:20:20.209Z,32.33
2023-05-09T02:22:47.677Z,33.58
2023-05-09T02:25:15.751Z,33.35
2023-05-09T02:27:46.136Z,31.63
2023-05-09T02:30:18.782Z,33.10
2023-05-09T02:32:47.303Z,32.22
2023-05-09T02:35:16.476Z,30.55
2023-05-09T02:37:45.398Z,33.47
2023-05-09T02:40:13.435Z,30.85
2023-05-09T02:42:40.496Z,31.42
2023-05-09T02:45:07.996Z,30.05
2023-05-09T02:47:35.909Z,30.30
2023-05-09T02:50:03.957Z,29.75
2023-05-09T02:52:32.427Z,30.27
2023-05-09T02:54:59.202Z,30.73
2023-05-09T02:57:26.006Z,30.90
2023-05-09T02:59:52.794Z,29.20
2023-05-09T03:02:19.769Z,30.27
2023-05-09T03:04:47.456Z,30.55
2023-05-09T03:07:14.540Z,29.70
2023-05-09T03:09:41.616Z,30.45
2023-05-09T03:12:08.910Z,30.33
2023-05-09T03:14:36.486Z,30.60
2023-05-09T03:17:03.664Z,29.38
2023-05-09T03:19:34.742Z,29.85
2023-05-09T03:22:01.711Z,29.85
2023-05-09T03:24:31.391Z,29.83
2023-05-09T03:26:58.210Z,29.40
2023-05-09T03:29:26.063Z,29.13
2023-05-09T03:31:54.215Z,30.13
2023-05-09T03:34:21.189Z,29.35
2023-05-09T03:36:48.052Z,28.80
2023-05-09T03:39:15.819Z,28.65
2023-05-09T03:41:46.834Z,27.80
2023-05-09T03:44:13.824Z,27.42
2023-05-09T03:46:40.697Z,27.08
2023-05-09T03:49:07.962Z,27.50
2023-05-09T03:51:36.687Z,26.20
2023-05-09T03:54:06.434Z,27.25
2023-05-09T03:56:33.388Z,25.23
2023-05-09T03:59:00.270Z,25.95
2023-05-09T04:01:27.976Z,25.58
2023-05-09T04:03:58.202Z,25.83
2023-05-09T04:06:26.372Z,24.27
2023-05-09T04:08:53.311Z,24.40
2023-05-09T04:11:21.709Z,24.77
2023-05-09T04:13:49.883Z,24.13
2023-05-09T04:16:30.647Z,24.73
2023-05-09T04:18:57.510Z,26.17
2023-05-09T04:21:24.408Z,24.98
2023-05-09T04:23:54.182Z,26.58
2023-05-09T04:26:30.250Z,25.58
2023-05-09T04:28:59.184Z,26.33
2023-05-09T04:31:26.585Z,25.95
2023-05-09T04:33:53.869Z,26.25
2023-05-09T04:36:22.188Z,25.02
2023-05-09T04:38:49.429Z,24.00
2023-05-09T04:41:22.798Z,25.17
2023-05-09T04:43:49.801Z,24.52
2023-05-09T04:46:16.928Z,24.58
2023-05-09T04:48:43.845Z,23.35
2023-05-09T04:51:10.925Z,22.73
2023-05-09T04:53:37.701Z,22.85
2023-05-09T04:56:06.030Z,22.58
2023-05-09T04:58:34.506Z,21.48
2023-05-09T05:01:01.884Z,21.20
2023-05-09T05:03:28.962Z,22.05
2023-05-09T05:05:55.791Z,21.52
2023-05-09T05:08:22.728Z,20.23
2023-05-09T05:10:50.994Z,19.10
2023-05-09T05:13:18.442Z,19.48
2023-05-09T05:15:49.829Z,21.33
2023-05-09T05:18:18.355Z,19.92
2023-05-09T05:20:45.198Z,21.08
2023-05-09T05:23:12.308Z,19.15
2023-05-09T05:25:39.373Z,18.70
2023-05-09T05:28:06.665Z,20.77
2023-05-09T05:30:34.585Z,18.95
2023-05-09T05:33:02.608Z,19.35
2023-05-09T05:35:29.542Z,18.90
2023-05-09T05:37:57.218Z,19.02
2023-05-09T05:40:25.060Z,20.48
2023-05-09T05:42:54.362Z,20.42
2023-05-09T05:45:21.534Z,19.63
2023-05-09T05:47:52.226Z,19.63
2023-05-09T05:50:19.604Z,18.48
2023-05-09T05:52:47.713Z,18.58
2023-05-09T05:55:16.536Z,18.40
2023-05-09T05:57:43.831Z,18.67
2023-05-09T06:00:15.400Z,18.60
2023-05-09T06:02:59.396Z,18.40
2023-05-09T06:05:41.326Z,17.23
2023-05-09T06:08:08.116Z,17.75
2023-05-09T06:10:34.907Z,18.02
2023-05-09T06:13:01.740Z,17.05
2023-05-09T06:15:28.779Z,16.63
2023-05-09T06:17:55.971Z,16.70
2023-05-09T06:20:22.794Z,16.17
2023-05-09T06:22:49.742Z,18.17
2023-05-09T06:25:16.952Z,17.25
2023-05-09T06:27:44.718Z,16.70
2023-05-09T06:30:24.860Z,16.88
2023-05-09T06:32:53.250Z,16.25
2023-05-09T06:35:20.285Z,15.93
2023-05-09T06:37:48.616Z,16.50
2023-05-09T06:40:16.775Z,17.27
2023-05-09T06:42:43.731Z,15.27
2023-05-09T06:45:11.592Z,16.30
2023-05-09T06:47:38.646Z,15.32
2023-05-09T06:50:06.100Z,15.60
2023-05-09T06:52:32.930Z,16.13
2023-05-09T06:54:59.726Z,16.38
2023-05-09T06:57:26.571Z,16.83
2023-05-09T06:59:53.399Z,16.17
2023-05-09T07:02:20.284Z,16.67
2023-05-09T07:04:47.154Z,17.42
2023-05-09T07:07:13.988Z,16.30
2023-05-09T07:09:40.849Z,17.60
2023-05-09T07:12:07.844Z,17.40
2023-05-09T07:14:34.626Z,17.80
2023-05-09T07:17:18.145Z,17.63
2023-05-09T07:19:48.191Z,17.60
2023-05-09T07:22:15.043Z,18.73
2023-05-09T07:24:41.888Z,17.10
2023-05-09T07:27:08.721Z,17.83
2023-05-09T07:29:35.666Z,17.90
2023-05-09T07:32:02.566Z,17.15
2023-05-09T07:34:29.474Z,20.05
2023-05-09T07:36:56.257Z,19.77
2023-05-09T07:39:23.042Z,20.10
2023-05-09T07:41:49.923Z,19.00
2023-05-09T07:44:16.721Z,19.45
2023-05-09T07:46:43.541Z,19.17
2023-05-09T07:49:10.531Z,19.80
2023-05-09T07:51:37.354Z,20.13
2023-05-09T07:54:45.051Z,19.42
2023-05-09T07:57:11.835Z,17.25
2023-05-09T07:59:38.749Z,18.50
2023-05-09T08:02:05.619Z,20.55
2023-05-09T08:04:32.508Z,19.75
2023-05-09T08:06:59.698Z,19.05
2023-05-09T08:09:26.655Z,19.25
2023-05-09T08:11:53.548Z,19.42
2023-05-09T08:14:20.406Z,18.45
2023-05-09T08:16:47.286Z,18.17
2023-05-09T08:19:14.115Z,17.90
2023-05-09T08:21:40.971Z,16.88
2023-05-09T08:24:44.089Z,18.00
2023-05-09T08:27:13.371Z,15.27
2023-05-09T08:29:40.699Z,16.65
2023-05-09T08:32:07.902Z,15.57
2023-05-09T08:34:35.074Z,15.27
2023-05-09T08:37:02.587Z,14.18
2023-05-09T08:39:29.736Z,14.65
2023-05-09T08:42:01.068Z,12.95
2023-05-09T08:44:30.166Z,13.80
2023-05-09T08:46:59.890Z,13.05
2023-05-09T08:49:27.975Z,12.32
2023-05-09T08:51:55.995Z,12.27
2023-05-09T08:54:23.908Z,12.80
2023-05-09T08:56:51.283Z,12.40
2023-05-09T08:59:19.041Z,12.05
2023-05-09T09:01:46.127Z,10.70
2023-05-09T09:04:18.690Z,10.52
2023-05-09T09:06:46.312Z,10.73
2023-05-09T09:09:15.537Z,9.65
2023-05-09T09:11:42.768Z,9.45
2023-05-09T09:14:48.458Z,9.80
2023-05-09T09:17:19.351Z,10.75
2023-05-09T09:19:50.359Z,10.40
2023-05-09T09:22:19.512Z,10.80
2023-05-09T09:24:46.634Z,10.82
2023-05-09T09:27:13.534Z,10.40
2023-05-09T09:29:40.330Z,10.65
2023-05-09T09:32:07.942Z,11.27
2023-05-09T09:34:34.829Z,11.05
2023-05-09T09:37:01.759Z,10.70
2023-05-09T09:39:28.583Z,9.85
2023-05-09T09:41:55.497Z,9.40
2023-05-09T09:44:23.441Z,10.02
2023-05-09T09:46:55.196Z,9.40
2023-05-09T09:49:26.805Z,9.68
2023-05-09T09:51:58.478Z,9.30
2023-05-09T09:54:28.897Z,8.93
2023-05-09T09:56:56.498Z,9.05
2023-05-09T09:59:25.634Z,9.18
2023-05-09T10:02:07.039Z,8.60
2023-05-09T10:04:37.909Z,7.82
2023-05-09T10:07:07.366Z,7.93
2023-05-09T10:09:37.870Z,8.02
2023-05-09T10:12:08.572Z,7.97
2023-05-09T10:14:36.812Z,7.80
2023-05-09T10:17:05.729Z,7.43
2023-05-09T10:19:33.252Z,6.97
2023-05-09T10:22:08.161Z,6.95
2023-05-09T10:24:40.119Z,7.30
2023-05-09T10:27:10.559Z,7.45
2023-05-09T10:30:12.937Z,7.95
2023-05-09T10:32:49.442Z,7.05
2023-05-09T10:35:17.924Z,7.50
2023-05-09T10:37:46.013Z,7.57
2023-05-09T10:40:16.192Z,7.70
2023-05-09T10:42:48.830Z,7.47
2023-05-09T10:45:16.124Z,7.53
2023-05-09T10:47:45.479Z,7.38
2023-05-09T10:50:13.246Z,7.32
2023-05-09T10:53:18.359Z,7.57
2023-05-09T10:55:52.259Z,6.97
2023-05-09T10:58:30.102Z,7.68
2023-05-09T11:00:58.710Z,7.65
2023-05-09T11:03:26.916Z,6.80
2023-05-09T11:05:56.018Z,6.95
2023-05-09T11:08:29.102Z,7.20
2023-05-09T11:10:58.077Z,7.22
2023-05-09T11:13:30.197Z,7.30
2023-05-09T11:15:59.700Z,7.60
2023-05-09T11:18:26.609Z,7.72
2023-05-09T11:20:53.700Z,7.10
2023-05-09T11:23:27.448Z,6.88
2023-05-09T11:26:03.992Z,7.13
2023-05-09T11:28:36.479Z,6.97
2023-05-09T11:31:14.364Z,7.13
2023-05-09T11:34:07.049Z,7.32
2023-05-09T11:36:34.125Z,6.63
2023-05-09T11:39:09.338Z,6.63
2023-05-09T11:41:47.337Z,6.35
2023-05-09T11:44:19.788Z,6.65
2023-05-09T11:46:48.357Z,6.80
2023-05-09T11:49:17.144Z,6.15
2023-05-09T11:51:44.111Z,7.05
2023-05-09T11:54:12.411Z,6.85
2023-05-09T11:56:42.123Z,7.00
2023-05-09T11:59:10.640Z,7.00
2023-05-09T12:01:37.657Z,6.78
2023-05-09T12:04:07.972Z,6.25
2023-05-09T12:06:34.911Z,6.20
2023-05-09T12:09:01.708Z,6.28
2023-05-09T12:11:32.470Z,6.47
2023-05-09T12:13:59.402Z,6.30
2023-05-09T12:16:26.298Z,6.45
2023-05-09T12:18:53.626Z,6.45
2023-05-09T12:21:21.758Z,6.10
2023-05-09T12:23:51.188Z,6.10
2023-05-09T12:26:22.222Z,6.80
2023-05-09T12:28:49.972Z,6.15
2023-05-09T12:31:17.745Z,6.78
2023-05-09T12:33:44.693Z,5.82
2023-05-09T12:36:13.603Z,6.95
2023-05-09T12:38:40.753Z,7.13
2023-05-09T12:41:21.840Z,7.35
2023-05-09T12:43:57.201Z,6.63
2023-05-09T12:46:24.314Z,6.55
2023-05-09T12:48:51.837Z,6.22
2023-05-09T12:51:21.987Z,6.68
2023-05-09T12:58:17.019Z,6.75
2023-05-09T13:00:45.431Z,6.10
2023-05-09T13:03:25.979Z,5.88
2023-05-09T13:06:04.792Z,6.28
2023-05-09T13:08:32.330Z,6.13
2023-05-09T13:11:11.869Z,5.65
2023-05-09T13:13:42.731Z,5.57
2023-05-09T13:16:15.054Z,4.82
2023-05-09T13:18:46.490Z,4.93
2023-05-09T13:21:13.461Z,5.30
2023-05-09T13:24:41.270Z,4.55
2023-05-09T13:27:13.421Z,4.22
2023-05-09T13:29:42.072Z,4.32
2023-05-09T13:32:12.129Z,4.10
2023-05-09T13:34:39.032Z,4.35
2023-05-09T13:37:08.558Z,4.60
2023-05-09T13:39:37.466Z,4.28
2023-05-09T13:42:04.297Z,5.20
2023-05-09T13:44:31.041Z,6.10
2023-05-09T13:47:00.138Z,5.38
2023-05-09T13:49:30.220Z,5.22
2023-05-09T13:51:57.376Z,5.22
2023-05-09T13:54:35.195Z,5.20
2023-05-09T13:57:03.940Z,5.15
2023-05-09T13:59:35.585Z,5.68
2023-05-09T14:02:02.686Z,5.00
2023-05-09T14:04:34.620Z,5.07
2023-05-09T14:07:18.382Z,5.65
2023-05-09T14:09:49.116Z,5.70
2023-05-09T14:12:31.628Z,5.78
2023-05-09T14:15:02.384Z,5.55
2023-05-09T14:17:32.566Z,5.40
2023-05-09T14:20:02.539Z,5.47
2023-05-09T14:25:38.438Z,4.18
2023-05-09T14:29:09.335Z,4.28
2023-05-09T14:31:37.219Z,3.97
2023-05-09T14:34:10.200Z,4.40
2023-05-09T14:36:40.105Z,4.90
2023-05-09T14:39:07.595Z,4.63
2023-05-09T14:41:34.696Z,4.97
2023-05-09T14:44:01.541Z,4.50
2023-05-09T14:46:28.670Z,5.00
2023-05-09T14:48:57.642Z,4.80
2023-05-09T14:51:24.419Z,5.13
2023-05-09T14:53:57.159Z,5.32
2023-05-09T14:56:24.356Z,5.05
2023-05-09T14:58:51.435Z,4.20
2023-05-09T15:01:19.883Z,4.70
2023-05-09T15:03:52.659Z,4.22
2023-05-09T15:06:19.570Z,4.65
2023-05-09T15:08:46.479Z,5.32
2023-05-09T15:11:13.397Z,4.80
2023-05-09T15:13:40.235Z,4.88
2023-05-09T15:16:07.140Z,4.60
2023-05-09T15:18:34.466Z,4.50
2023-05-09T15:21:01.426Z,4.22
2023-05-09T15:23:28.389Z,4.63
2023-05-09T15:25:55.355Z,4.53
2023-05-09T15:28:22.437Z,4.35
2023-05-09T15:30:49.469Z,4.57
2023-05-09T15:33:16.272Z,4.60
2023-05-09T15:35:47.181Z,4.35
2023-05-09T15:38:20.638Z,5.00
2023-05-09T15:40:48.925Z,5.00
2023-05-09T15:43:47.081Z,4.60
2023-05-09T15:46:14.092Z,3.80
2023-05-09T15:48:41.112Z,4.88
2023-05-09T15:51:09.621Z,4.30
2023-05-09T15:53:36.791Z,4.60
2023-05-09T15:56:04.375Z,4.68
2023-05-09T16:01:15.381Z,4.00
2023-05-09T16:03:50.908Z,3.15
2023-05-09T16:06:39.055Z,3.60
2023-05-09T16:09:06.788Z,3.58
2023-05-09T16:11:33.789Z,3.38
2023-05-09T16:14:00.729Z,2.90
2023-05-09T16:16:27.818Z,3.45
2023-05-09T16:18:55.007Z,3.58
2023-05-09T16:21:22.437Z,3.40
2023-05-09T16:23:55.524Z,3.90
2023-05-09T16:26:22.383Z,4.10
2023-05-09T16:28:49.230Z,4.07
2023-05-09T16:31:16.044Z,4.13
2023-05-09T16:33:43.956Z,4.55
2023-05-09T16:36:10.793Z,4.82
2023-05-09T16:38:37.584Z,4.75
2023-05-09T16:41:04.459Z,4.65
2023-05-09T16:43:31.382Z,5.65
2023-05-09T16:45:58.254Z,5.30
2023-05-09T16:48:25.138Z,4.88
2023-05-09T16:50:53.816Z,5.93
2023-05-09T16:54:01.487Z,5.55
2023-05-09T16:56:30.971Z,5.40
2023-05-09T16:58:57.778Z,5.72
2023-05-09T17:01:24.744Z,5.78
2023-05-09T17:03:52.554Z,6.35
2023-05-09T17:06:19.628Z,5.13
2023-05-09T17:08:46.923Z,5.97
2023-05-09T17:11:14.419Z,6.53
2023-05-09T17:13:42.766Z,6.53
2023-05-09T17:16:09.781Z,6.38
2023-05-09T17:18:38.415Z,6.43
2023-05-09T17:21:06.620Z,6.95
2023-05-09T17:23:33.487Z,8.95
2023-05-09T17:26:00.494Z,7.18
2023-05-09T17:28:27.467Z,7.30
2023-05-09T17:30:54.365Z,6.63
2023-05-09T17:33:36.688Z,7.30
2023-05-09T17:36:03.830Z,7.60
2023-05-09T17:38:30.798Z,9.80
2023-05-09T17:40:58.311Z,9.23
2023-05-09T17:43:31.896Z,9.23
2023-05-09T17:46:01.477Z,9.05
2023-05-09T17:48:28.251Z,8.75
2023-05-09T17:50:55.210Z,9.18
2023-05-09T17:53:27.371Z,7.55
2023-05-09T17:55:54.490Z,6.93
2023-05-09T17:58:23.371Z,6.93
2023-05-09T18:00:54.024Z,6.90
2023-05-09T18:03:21.204Z,6.88
2023-05-09T18:05:49.121Z,8.23
2023-05-09T18:08:17.045Z,7.00
2023-05-09T18:10:44.219Z,7.07
2023-05-09T18:13:11.332Z,7.20
2023-05-09T18:15:38.586Z,7.00
2023-05-09T18:18:06.962Z,5.15
2023-05-09T18:20:34.983Z,5.30
2023-05-09T18:23:07.756Z,6.28
2023-05-09T18:25:38.692Z,5.70
2023-05-09T18:28:05.641Z,5.82
2023-05-09T18:30:32.594Z,5.57
2023-05-09T18:33:04.787Z,6.60
2023-05-09T18:35:32.196Z,5.43
2023-05-09T18:37:59.148Z,5.95
2023-05-09T18:40:26.035Z,6.55
2023-05-09T18:42:58.394Z,6.50
2023-05-09T18:45:25.314Z,6.78
2023-05-09T18:47:52.358Z,7.07
2023-05-09T18:50:19.399Z,6.95
2023-05-09T18:52:46.364Z,6.75
2023-05-09T18:55:15.277Z,7.00
2023-05-09T18:57:45.079Z,7.28
2023-05-09T19:00:13.117Z,7.10
2023-05-09T19:02:40.436Z,7.10
2023-05-09T19:05:09.238Z,6.90
2023-05-09T19:07:36.620Z,6.93
2023-05-09T19:10:04.858Z,6.85
2023-05-09T19:12:32.502Z,6.15
2023-05-09T19:14:59.776Z,5.93
2023-05-09T19:17:26.989Z,4.63
2023-05-09T19:19:54.060Z,3.88
2023-05-09T19:22:20.947Z,3.95
2023-05-09T19:24:48.049Z,4.28
2023-05-09T19:27:14.868Z,5.10
2023-05-09T19:29:41.917Z,4.72
2023-05-09T19:32:09.022Z,5.43
2023-05-09T19:35:22.111Z,6.22
2023-05-09T19:37:49.157Z,4.72
2023-05-09T19:40:16.345Z,5.78
2023-05-09T19:42:43.871Z,4.40
2023-05-09T19:45:11.233Z,4.13
2023-05-09T19:47:38.097Z,4.38
2023-05-09T19:50:05.815Z,3.95
2023-05-09T19:52:33.062Z,4.47
2023-05-09T19:55:00.009Z,4.32
2023-05-09T19:57:27.135Z,5.28
2023-05-09T19:59:55.664Z,5.13
2023-05-09T20:02:22.755Z,4.80
2023-05-09T20:04:50.225Z,4.90
2023-05-09T20:07:17.891Z,5.07
2023-05-09T20:09:44.883Z,5.05
2023-05-09T20:12:13.103Z,5.43
2023-05-09T20:14:40.279Z,5.00
2023-05-09T20:17:07.122Z,5.97
2023-05-09T20:19:34.302Z,5.43
2023-05-09T20:22:01.944Z,4.97
2023-05-09T20:24:29.045Z,5.40
2023-05-09T20:26:55.863Z,5.50
2023-05-09T20:29:24.834Z,4.80
2023-05-09T20:31:51.844Z,5.32
2023-05-09T20:34:21.740Z,5.60
2023-05-09T20:36:53.219Z,5.90
2023-05-09T20:39:20.693Z,5.43
2023-05-09T20:41:48.749Z,5.35
2023-05-09T20:44:16.861Z,5.15
2023-05-09T20:46:44.999Z,5.47
2023-05-09T20:49:11.961Z,5.35
2023-05-09T20:51:39.316Z,5.25
2023-05-09T20:54:06.548Z,5.95
2023-05-09T20:56:35.313Z,5.97
2023-05-09T20:59:04.206Z,6.07
2023-05-09T21:01:32.528Z,6.03
2023-05-09T21:03:59.806Z,6.40
2023-05-09T21:06:26.878Z,6.30
2023-05-09T21:08:53.843Z,7.07
2023-05-09T21:11:21.919Z,7.57
2023-05-09T21:13:48.964Z,7.80
2023-05-09T21:16:16.153Z,8.27
2023-05-09T21:18:43.046Z,8.88
2023-05-09T21:21:11.714Z,8.38
2023-05-09T21:23:38.599Z,8.80
2023-05-09T21:26:05.808Z,9.02
2023-05-09T21:28:33.031Z,8.38
2023-05-09T21:31:01.822Z,9.50
2023-05-09T21:33:29.261Z,8.93
2023-05-09T21:35:56.294Z,9.10
2023-05-09T21:38:23.363Z,9.25
2023-05-09T21:40:51.735Z,9.57
2023-05-09T21:43:19.063Z,10.43
2023-05-09T21:45:46.254Z,11.07
2023-05-09T21:48:13.314Z,10.70
2023-05-09T21:50:40.348Z,11.73
2023-05-09T21:53:07.164Z,11.88
2023-05-09T21:55:34.508Z,11.82
2023-05-09T21:58:01.478Z,11.70
2023-05-09T22:00:28.387Z,12.20
2023-05-09T22:02:55.340Z,12.20
2023-05-09T22:05:23.774Z,12.88
2023-05-09T22:07:51.418Z,13.05
2023-05-09T22:10:18.546Z,13.25
2023-05-09T22:12:46.010Z,12.50
2023-05-09T22:15:13.106Z,13.88
2023-05-09T22:17:40.043Z,13.27
2023-05-09T22:20:07.441Z,13.88
2023-05-09T22:22:34.265Z,14.55
2023-05-09T22:25:01.057Z,14.18
2023-05-09T22:27:27.956Z,13.75
2023-05-09T22:29:55.431Z,14.90
2023-05-09T22:32:22.466Z,14.70
2023-05-09T22:34:49.326Z,15.15
2023-05-09T22:37:16.240Z,15.38
2023-05-09T22:39:44.398Z,15.57
2023-05-09T22:42:11.392Z,15.80
2023-05-09T22:44:39.138Z,14.98
2023-05-09T22:47:09.675Z,16.38
2023-05-09T22:49:36.431Z,15.48
2023-05-09T22:52:03.564Z,16.60
2023-05-09T22:54:30.418Z,16.92
2023-05-09T22:56:57.312Z,16.55
2023-05-09T22:59:24.364Z,17.52
2023-05-09T23:01:53.486Z,18.42
2023-05-09T23:04:20.565Z,18.10
2023-05-09T23:06:47.383Z,18.10
2023-05-09T23:09:14.195Z,19.60
2023-05-09T23:11:49.701Z,25.30
2023-05-09T23:14:16.680Z,21.30
2023-05-09T23:16:44.007Z,19.58
2023-05-09T23:19:10.922Z,19.25
2023-05-09T23:21:37.753Z,19.25
2023-05-09T23:24:04.775Z,20.02
2023-05-09T23:26:31.592Z,18.92
2023-05-09T23:28:58.451Z,19.73
2023-05-09T23:31:25.451Z,20.95
2023-05-09T23:33:52.365Z,21.20
2023-05-09T23:36:19.208Z,21.20
2023-05-09T23:38:46.074Z,21.40
2023-05-09T23:41:13.009Z,20.88
2023-05-09T23:43:39.934Z,20.52
2023-05-09T23:46:06.976Z,21.23
2023-05-09T23:48:33.820Z,20.17
2023-05-09T23:51:00.725Z,20.25
2023-05-09T23:53:27.761Z,21.10
2023-05-09T23:55:54.587Z,20.15
2023-05-09T23:58:21.427Z,19.45
